Time;durP1;ratioP1;P1;durP2;ratioP2;P2;SDS_P1;SDS_P2;PMS_P1;PMS_P2;Temp;Humidity;BMP_temperature;BMP_pressure;BME280_temperature;BME280_humidity;BME280_pressure;Samples;Min_cycle;Max_cycle;Signal;HPM_P1;HPM_P2
2021/08/27 00:00:38;;;;;;;10.40;5.10;;;;;;;13.03;100.00;97284.97;5034007;28;20498;-81
2021/08/27 00:03:05;;;;;;;12.10;5.55;;;;;;;13.11;100.00;97280.56;5016128;28;20497;-80
2021/08/27 00:05:31;;;;;;;14.68;5.32;;;;;;;13.05;100.00;97271.06;5015741;28;20105;-80
2021/08/27 00:07:58;;;;;;;15.63;5.65;;;;;;;12.96;100.00;97273.88;5032200;28;20524;-80
2021/08/27 00:10:25;;;;;;;10.20;4.65;;;;;;;13.07;100.00;97277.75;5016214;28;20041;-80
2021/08/27 00:12:52;;;;;;;13.07;4.85;;;;;;;13.04;100.00;97269.47;5015905;28;20042;-80
2021/08/27 00:15:19;;;;;;;14.80;4.70;;;;;;;13.13;100.00;97270.19;5015945;28;20038;-80
2021/08/27 00:17:45;;;;;;;12.95;4.80;;;;;;;13.09;100.00;97274.69;5014648;28;20444;-81
2021/08/27 00:20:13;;;;;;;7.43;4.32;;;;;;;13.15;100.00;97276.06;5015860;28;20038;-80
2021/08/27 00:22:40;;;;;;;11.63;4.43;;;;;;;13.09;100.00;97275.50;5033741;28;20046;-79
2021/08/27 00:25:07;;;;;;;12.48;4.30;;;;;;;13.23;100.00;97275.16;5033653;28;20095;-80
2021/08/27 00:27:34;;;;;;;10.55;4.18;;;;;;;13.14;100.00;97270.97;5032927;28;20046;-80
2021/08/27 00:30:01;;;;;;;14.95;4.05;;;;;;;13.24;100.00;97265.09;5015710;28;20497;-78
2021/08/27 00:32:32;;;;;;;10.15;3.92;;;;;;;13.18;100.00;97278.09;5033850;28;20045;-78
2021/08/27 00:35:01;;;;;;;12.63;4.25;;;;;;;13.19;100.00;97281.63;5033465;28;20115;-80
2021/08/27 00:37:31;;;;;;;12.25;4.07;;;;;;;13.15;100.00;97280.69;5033123;28;20080;-80
2021/08/27 00:39:58;;;;;;;8.65;3.78;;;;;;;13.15;100.00;97276.06;5032157;28;20099;-79
2021/08/27 00:42:25;;;;;;;12.95;4.18;;;;;;;13.19;100.00;97266.09;5015081;28;20057;-78
2021/08/27 00:44:54;;;;;;;8.20;3.50;;;;;;;13.15;100.00;97262.47;5032993;28;20050;-79
2021/08/27 00:47:21;;;;;;;12.93;3.80;;;;;;;13.25;100.00;97272.09;5015302;28;20057;-81
2021/08/27 00:49:48;;;;;;;16.40;3.85;;;;;;;13.27;100.00;97267.91;5032656;28;20041;-81
2021/08/27 00:52:15;;;;;;;14.55;3.80;;;;;;;13.09;100.00;97263.81;5033203;28;20125;-81
2021/08/27 00:54:49;;;;;;;12.98;3.88;;;;;;;13.15;100.00;97281.50;5014707;28;20469;-78
2021/08/27 00:57:16;;;;;;;10.63;3.70;;;;;;;13.07;100.00;97263.38;5032493;28;20038;-80
2021/08/27 00:59:42;;;;;;;10.43;3.65;;;;;;;13.18;100.00;97282.75;5032203;28;20046;-79
2021/08/27 01:02:09;;;;;;;12.40;3.83;;;;;;;13.33;100.00;97271.19;5032515;28;20049;-81
2021/08/27 01:04:41;;;;;;;16.15;4.35;;;;;;;13.29;100.00;97265.63;5017436;28;20624;-81
2021/08/27 01:07:19;;;;;;;11.13;3.97;;;;;;;13.12;100.00;97271.31;5036371;28;20049;-80
2021/08/27 01:09:55;;;;;;;11.50;3.80;;;;;;;13.14;100.00;97268.25;5038173;28;20073;-80
2021/08/27 01:12:31;;;;;;;;;;;;;;;13.17;100.00;97267.56;5020563;28;20049;-80
2021/08/27 01:15:05;;;;;;;14.77;3.90;;;;;;;13.13;100.00;97270.19;5032400;28;20393;-79
2021/08/27 01:17:40;;;;;;;8.23;3.50;;;;;;;13.15;100.00;97275.25;5031448;28;20132;-81
2021/08/27 01:21:00;;;;;;;11.93;3.88;;;;;;;13.09;100.00;97271.97;5032120;28;20042;-79
2021/08/27 01:23:40;;;;;;;12.73;4.00;;;;;;;13.14;100.00;97265.53;4951178;28;20047;-81
2021/08/27 01:26:07;;;;;;;9.48;4.15;;;;;;;13.04;100.00;97272.19;5032135;28;20053;-81
2021/08/27 01:28:46;;;;;;;9.27;4.40;;;;;;;13.04;100.00;97280.31;5014447;28;20405;-80
2021/08/27 01:31:25;;;;;;;16.30;4.80;;;;;;;12.97;100.00;97280.91;5032259;28;20053;-79
2021/08/27 01:34:01;;;;;;;13.73;5.15;;;;;;;12.92;100.00;97277.59;5032618;28;20560;-80
2021/08/27 01:36:33;;;;;;;14.27;5.75;;;;;;;12.96;100.00;97270.34;5014344;28;20046;-80
2021/08/27 01:39:04;;;;;;;13.90;6.32;;;;;;;12.99;100.00;97281.34;5031464;28;20049;-80
2021/08/27 01:41:37;;;;;;;18.52;6.95;;;;;;;12.97;100.00;97285.53;5032205;28;20250;-79
2021/08/27 01:44:06;;;;;;;12.63;7.80;;;;;;;12.97;100.00;97280.91;5031859;28;20037;-79
2021/08/27 01:46:39;;;;;;;13.07;6.80;;;;;;;12.80;100.00;97274.88;5030837;28;20045;-80
2021/08/27 01:49:11;;;;;;;16.73;7.75;;;;;;;12.86;100.00;97281.66;5032302;28;20056;-79
2021/08/27 01:51:40;;;;;;;12.27;7.15;;;;;;;12.92;100.00;97278.41;5015881;28;20052;-79
2021/08/27 01:54:08;;;;;;;12.18;7.00;;;;;;;12.97;100.00;97280.09;5015098;28;20567;-79
2021/08/27 01:56:38;;;;;;;12.80;8.05;;;;;;;13.00;100.00;97284.88;5015964;28;20566;-81
2021/08/27 01:59:07;;;;;;;14.50;7.28;;;;;;;12.88;100.00;97282.91;5032881;28;20119;-78
2021/08/27 02:01:35;;;;;;;10.95;7.47;;;;;;;12.94;100.00;97284.28;5034088;28;20049;-78
2021/08/27 02:04:05;;;;;;;15.27;7.00;;;;;;;12.93;100.00;97288.13;5015661;28;20045;-78
2021/08/27 02:06:33;;;;;;;18.85;6.32;;;;;;;12.84;100.00;97289.38;5032816;28;20064;-81
2021/08/27 02:09:00;;;;;;;12.20;6.00;;;;;;;12.75;100.00;97292.19;5015703;28;20045;-81
2021/08/27 02:11:30;;;;;;;12.70;5.82;;;;;;;12.72;100.00;97284.72;5016160;28;20109;-81
2021/08/27 02:13:58;;;;;;;13.68;5.47;;;;;;;12.74;100.00;97297.97;5034012;28;20042;-81
2021/08/27 02:16:27;;;;;;;11.63;6.05;;;;;;;12.67;100.00;97284.16;5034290;28;20041;-81
2021/08/27 02:18:57;;;;;;;17.20;7.03;;;;;;;12.73;100.00;97286.28;5034620;28;20073;-80
2021/08/27 02:21:29;;;;;;;14.63;7.20;;;;;;;12.76;100.00;97287.53;5037686;28;20049;-79
2021/08/27 02:23:57;;;;;;;14.55;6.90;;;;;;;12.71;100.00;97301.34;5053700;28;20044;-79
2021/08/27 02:26:25;;;;;;;13.88;7.03;;;;;;;12.75;100.00;97283.25;5056257;28;20041;-79
2021/08/27 02:28:52;;;;;;;19.60;7.68;;;;;;;12.72;100.00;97289.34;5042429;28;20037;-80
2021/08/27 02:31:19;;;;;;;17.48;7.60;;;;;;;12.74;100.00;97300.66;5060185;28;20029;-79
2021/08/27 02:33:49;;;;;;;13.15;6.90;;;;;;;12.78;100.00;97288.78;5044242;28;20049;-79
2021/08/27 02:36:18;;;;;;;16.95;6.85;;;;;;;12.88;100.00;97282.13;5037258;28;20057;-79
2021/08/27 02:38:47;;;;;;;15.73;6.97;;;;;;;12.71;100.00;97283.13;5036161;28;20048;-80
2021/08/27 02:41:14;;;;;;;14.82;7.80;;;;;;;12.77;100.00;97286.41;5036390;28;20045;-79
2021/08/27 02:43:40;;;;;;;14.50;7.97;;;;;;;12.72;100.00;97279.28;5035862;28;20045;-78
2021/08/27 02:46:07;;;;;;;13.52;7.43;;;;;;;12.80;100.00;97285.75;5034846;28;20049;-78
2021/08/27 02:48:34;;;;;;;14.88;7.68;;;;;;;12.79;100.00;97279.53;5034975;28;20050;-80
2021/08/27 02:51:14;;;;;;;17.73;7.43;;;;;;;12.72;100.00;97279.28;5035954;28;20037;-78
2021/08/27 02:53:51;;;;;;;17.60;7.00;;;;;;;12.78;100.00;97277.91;5037498;28;20049;-80
2021/08/27 02:56:25;;;;;;;13.50;7.15;;;;;;;12.76;100.00;97273.97;5036531;28;20050;-80
2021/08/27 02:58:53;;;;;;;12.95;6.07;;;;;;;12.72;100.00;97278.50;5035052;28;20045;-79
2021/08/27 03:01:37;;;;;;;12.32;7.28;;;;;;;12.69;100.00;97279.16;5001354;28;20038;-80
2021/08/27 03:04:45;;;;;;;15.48;7.88;;;;;;;12.72;100.00;97281.22;5036837;28;20050;-79
2021/08/27 03:07:16;;;;;;;14.77;7.72;;;;;;;12.74;100.00;97281.66;5035190;28;20464;-80
2021/08/27 03:09:50;;;;;;;15.38;7.22;;;;;;;12.67;100.00;97286.84;5034765;28;20049;-79
2021/08/27 03:12:20;;;;;;;11.55;7.00;;;;;;;12.62;100.00;97289.78;5035165;28;20045;-80
2021/08/27 03:14:54;;;;;;;20.17;7.32;;;;;;;12.71;100.00;97279.63;5034628;28;20724;-80
2021/08/27 03:17:25;;;;;;;16.02;6.72;;;;;;;12.67;100.00;97290.34;5035448;28;20041;-80
2021/08/27 03:20:00;;;;;;;17.83;7.18;;;;;;;12.57;100.00;97273.72;5033097;28;20046;-80
2021/08/27 03:22:32;;;;;;;16.17;6.97;;;;;;;12.70;100.00;97276.09;5016949;28;20099;-79
2021/08/27 03:25:03;;;;;;;13.85;7.63;;;;;;;12.54;100.00;97272.47;5033844;28;20116;-81
2021/08/27 03:27:41;;;;;;;18.20;7.60;;;;;;;12.53;100.00;97273.59;5016927;28;20050;-79
2021/08/27 03:30:17;;;;;;;13.30;7.40;;;;;;;12.57;100.00;97274.47;5032726;28;20040;-80
2021/08/27 03:32:47;;;;;;;11.65;7.53;;;;;;;12.48;100.00;97269.16;5033855;28;20084;-80
2021/08/27 03:35:17;;;;;;;13.88;7.25;;;;;;;12.60;100.00;97275.72;5033382;28;20444;-80
2021/08/27 03:37:44;;;;;;;16.08;6.80;;;;;;;12.55;100.00;97273.22;5034665;28;20501;-80
2021/08/27 03:40:12;;;;;;;13.70;7.53;;;;;;;12.54;100.00;97271.66;5035118;28;20053;-80
2021/08/27 03:42:40;;;;;;;12.35;8.00;;;;;;;12.57;100.00;97282.63;5034490;28;20045;-79
2021/08/27 03:45:09;;;;;;;10.80;7.72;;;;;;;12.61;100.00;97274.63;5017520;28;20049;-80
2021/08/27 03:47:42;;;;;;;15.98;8.63;;;;;;;12.61;100.00;97280.84;5016458;28;20049;-81
2021/08/27 03:50:10;;;;;;;15.10;8.70;;;;;;;12.57;100.00;97265.56;5033853;28;20091;-80
2021/08/27 03:52:40;;;;;;;13.23;8.48;;;;;;;12.57;100.00;97268.28;5019411;28;20045;-80
2021/08/27 03:55:11;;;;;;;15.32;8.95;;;;;;;12.54;100.00;97264.31;5037501;28;20060;-81
2021/08/27 03:57:39;;;;;;;14.82;8.80;;;;;;;12.58;100.00;97273.38;5036142;28;20413;-81
2021/08/27 04:00:07;;;;;;;15.02;8.55;;;;;;;12.68;100.00;97272.13;5031963;28;20398;-78
2021/08/27 04:02:34;;;;;;;12.93;8.43;;;;;;;12.77;100.00;97270.13;5032436;28;20049;-79
2021/08/27 04:05:12;;;;;;;20.48;8.63;;;;;;;12.77;100.00;97270.13;5033360;28;20081;-79
2021/08/27 04:07:41;;;;;;;17.30;8.70;;;;;;;12.76;100.00;97269.31;5038980;28;20041;-78
2021/08/27 04:10:10;;;;;;;11.43;7.53;;;;;;;12.63;100.00;97265.00;5023011;28;20156;-77
2021/08/27 04:12:39;;;;;;;15.65;7.50;;;;;;;12.77;100.00;97262.78;5040870;28;20053;-79
2021/08/27 04:15:08;;;;;;;11.90;8.00;;;;;;;12.81;100.00;97274.53;5045985;28;20038;-80
2021/08/27 04:17:35;;;;;;;15.38;8.05;;;;;;;12.69;100.00;97266.38;5044065;28;20041;-78
2021/08/27 04:20:04;;;;;;;18.23;7.80;;;;;;;12.72;100.00;97257.56;5029372;28;20034;-79
2021/08/27 04:22:31;;;;;;;20.25;9.25;;;;;;;12.65;100.00;97268.16;5032130;28;20068;-80
2021/08/27 04:24:58;;;;;;;18.40;9.77;;;;;;;12.61;100.00;97263.75;5036377;28;20045;-80
2021/08/27 04:27:24;;;;;;;15.55;9.40;;;;;;;12.49;100.00;97268.00;5035989;28;20041;-79
2021/08/27 04:29:51;;;;;;;15.23;9.18;;;;;;;12.55;100.00;97278.66;5018673;28;20157;-80
2021/08/27 04:32:19;;;;;;;13.63;8.20;;;;;;;12.57;100.00;97276.44;5031283;28;20112;-81
2021/08/27 04:34:46;;;;;;;13.77;8.40;;;;;;;12.54;100.00;97277.09;5034067;28;20045;-80
2021/08/27 04:37:12;;;;;;;14.05;8.13;;;;;;;12.59;100.00;97269.53;5018979;28;20054;-80
2021/08/27 04:39:40;;;;;;;16.30;8.27;;;;;;;12.61;100.00;97272.69;5035914;28;20065;-81
2021/08/27 04:42:11;;;;;;;15.90;8.43;;;;;;;12.63;100.00;97272.34;5037485;28;20053;-80
2021/08/27 04:44:37;;;;;;;15.27;8.07;;;;;;;12.54;100.00;97275.19;5037038;28;20041;-79
2021/08/27 04:47:04;;;;;;;11.02;7.88;;;;;;;12.51;100.00;97273.13;5036487;28;20037;-79
2021/08/27 04:49:30;;;;;;;16.27;8.45;;;;;;;12.59;100.00;97274.97;5018363;28;20056;-80
2021/08/27 04:52:01;;;;;;;14.27;8.35;;;;;;;12.54;100.00;97271.66;5036889;28;20038;-79
2021/08/27 04:54:28;;;;;;;14.57;8.80;;;;;;;12.49;100.00;97276.16;5036369;28;20049;-79
2021/08/27 04:56:55;;;;;;;21.73;8.60;;;;;;;12.54;100.00;97277.09;5036233;28;20045;-79
2021/08/27 04:59:27;;;;;;;13.50;8.38;;;;;;;12.48;100.00;97276.50;5018238;28;20546;-80
2021/08/27 05:01:54;;;;;;;13.15;9.02;;;;;;;12.51;100.00;97270.41;5026353;28;20038;-80
2021/08/27 05:04:21;;;;;;;13.90;9.05;;;;;;;12.60;100.00;97281.16;5016522;28;20068;-80
2021/08/27 05:06:48;;;;;;;15.40;8.40;;;;;;;12.45;100.00;97288.84;5000854;28;20045;-79
2021/08/27 05:09:17;;;;;;;16.02;9.48;;;;;;;12.49;100.00;97284.31;5015254;28;20076;-79
2021/08/27 05:11:43;;;;;;;18.40;9.13;;;;;;;12.40;100.00;97277.38;4999715;28;20045;-78
2021/08/27 05:14:10;;;;;;;15.68;9.73;;;;;;;12.44;100.00;97284.53;5018497;28;20048;-79
2021/08/27 05:16:36;;;;;;;15.75;9.40;;;;;;;12.47;100.00;97285.78;5020309;28;20045;-79
2021/08/27 05:19:03;;;;;;;19.10;9.80;;;;;;;12.38;100.00;97285.09;5036166;28;20053;-79
2021/08/27 05:21:31;;;;;;;19.55;10.07;;;;;;;12.45;100.00;97277.19;5037624;28;20041;-79
2021/08/27 05:23:58;;;;;;;21.92;11.15;;;;;;;12.51;100.00;97270.41;5044908;23;20434;-81
2021/08/27 05:26:25;;;;;;;18.40;11.35;;;;;;;12.42;100.00;97280.56;5012301;28;20045;-81
2021/08/27 05:28:52;;;;;;;17.65;9.75;;;;;;;12.46;100.00;97276.84;5012351;28;20519;-83
2021/08/27 05:31:34;;;;;;;17.27;10.13;;;;;;;12.30;100.00;97262.31;4994868;28;20064;-84
2021/08/27 05:34:01;;;;;;;16.88;9.30;;;;;;;12.46;100.00;97276.84;4993891;28;20056;-83
2021/08/27 05:36:30;;;;;;;21.55;9.63;;;;;;;12.44;100.00;97273.66;4993780;28;20088;-84
2021/08/27 05:38:56;;;;;;;17.17;10.52;;;;;;;12.51;100.00;97278.56;5044267;23;20049;-78
2021/08/27 05:41:23;;;;;;;20.52;9.38;;;;;;;12.52;100.00;97267.34;5043456;28;20417;-80
2021/08/27 05:43:50;;;;;;;14.23;9.45;;;;;;;12.46;100.00;97259.78;5013413;28;20415;-80
2021/08/27 05:46:17;;;;;;;19.52;8.95;;;;;;;12.50;100.00;97271.53;5006258;28;20879;-79
2021/08/27 05:48:44;;;;;;;14.45;8.77;;;;;;;12.41;100.00;97268.13;5022899;28;20119;-80
2021/08/27 05:51:11;;;;;;;15.70;9.68;;;;;;;12.52;100.00;97280.94;5022547;28;20034;-80
2021/08/27 05:53:38;;;;;;;20.52;10.05;;;;;;;12.41;100.00;97262.69;5022869;28;20069;-78
2021/08/27 05:56:07;;;;;;;16.83;9.82;;;;;;;12.57;100.00;97271.00;5005806;28;20065;-80
2021/08/27 05:58:34;;;;;;;13.00;9.02;;;;;;;12.59;100.00;97266.03;5012370;28;20033;-78
2021/08/27 06:01:01;;;;;;;18.48;9.10;;;;;;;12.66;100.00;97275.19;5027006;28;20176;-79
2021/08/27 06:03:28;;;;;;;16.27;9.10;;;;;;;12.61;100.00;97277.34;5027395;28;20041;-80
2021/08/27 06:05:57;;;;;;;13.93;9.77;;;;;;;12.64;100.00;97276.66;5026629;28;20046;-80
2021/08/27 06:08:24;;;;;;;17.92;9.48;;;;;;;12.63;100.00;97280.50;5028075;28;20070;-79
2021/08/27 06:10:51;;;;;;;16.77;9.48;;;;;;;12.67;100.00;97282.19;5025468;28;20042;-80
2021/08/27 06:13:19;;;;;;;17.50;9.48;;;;;;;12.61;100.00;97288.19;5026172;28;20145;-80
2021/08/27 06:15:46;;;;;;;15.30;9.35;;;;;;;12.73;100.00;97280.06;5009529;28;20076;-80
2021/08/27 06:18:13;;;;;;;13.07;8.85;;;;;;;12.84;100.00;97273.88;5009257;28;20076;-80
2021/08/27 06:20:40;;;;;;;14.40;8.63;;;;;;;12.75;100.00;97266.97;5027008;28;20042;-80
2021/08/27 06:23:06;;;;;;;16.10;8.43;;;;;;;12.74;100.00;97268.88;5026560;28;20532;-80
2021/08/27 06:25:35;;;;;;;12.73;8.48;;;;;;;12.95;100.00;97277.75;5010004;28;20121;-79
2021/08/27 06:28:02;;;;;;;18.92;9.02;;;;;;;12.94;100.00;97273.41;5014802;28;20045;-81
2021/08/27 06:30:29;;;;;;;15.65;8.65;;;;;;;12.99;100.00;97281.34;5037914;28;20026;-79
2021/08/27 06:32:56;;;;;;;16.38;8.02;;;;;;;12.95;100.00;97272.31;5020559;28;20053;-79
2021/08/27 06:35:23;;;;;;;15.90;8.48;;;;;;;13.04;100.00;97269.47;5037659;28;20085;-79
2021/08/27 06:40:35;;;;;;;12.32;7.82;;;;;;;13.16;100.00;97257.84;5037892;28;20057;-79
2021/08/27 06:43:02;;;;;;;15.65;8.32;;;;;;;13.21;100.00;97266.56;5036112;28;20058;-79
2021/08/27 06:45:29;;;;;;;12.55;7.30;;;;;;;13.23;100.00;97258.84;5027014;28;20041;-79
2021/08/27 06:47:56;;;;;;;11.88;8.25;;;;;;;13.19;100.00;97278.91;5025850;28;20050;-79
2021/08/27 06:50:24;;;;;;;16.60;8.60;;;;;;;13.01;100.00;97264.69;5016811;28;20145;-79
2021/08/27 06:52:55;;;;;;;15.75;7.88;;;;;;;12.92;100.00;97272.97;5016561;28;20107;-80
2021/08/27 06:55:22;;;;;;;12.98;7.97;;;;;;;12.88;100.00;97274.75;5016800;28;20042;-78
2021/08/27 06:57:49;;;;;;;13.00;7.72;;;;;;;12.87;100.00;97266.97;4998805;28;20065;-79
2021/08/27 07:00:16;;;;;;;16.55;8.10;;;;;;;12.81;100.00;97266.38;5016877;28;20449;-79
2021/08/27 07:02:43;;;;;;;11.73;7.53;;;;;;;12.82;100.00;97276.13;4998675;28;20109;-79
2021/08/27 07:05:10;;;;;;;14.88;8.18;;;;;;;13.03;100.00;97278.75;4997631;28;20046;-79
2021/08/27 07:07:37;;;;;;;12.95;7.45;;;;;;;13.21;100.00;97288.31;5011946;28;20149;-79
2021/08/27 07:10:05;;;;;;;14.75;7.70;;;;;;;13.48;100.00;97270.47;5013504;28;20509;-78
2021/08/27 07:12:32;;;;;;;14.50;7.53;;;;;;;13.58;100.00;97259.13;5012131;28;20405;-78
2021/08/27 07:14:59;;;;;;;10.48;7.07;;;;;;;13.75;100.00;97283.38;5012641;28;20054;-79
2021/08/27 07:17:26;;;;;;;16.30;6.40;;;;;;;13.64;100.00;97258.56;5016393;28;20103;-79
2021/08/27 07:19:53;;;;;;;11.45;6.88;;;;;;;13.53;100.00;97260.16;5017661;28;20393;-79
2021/08/27 07:22:19;;;;;;;14.88;6.78;;;;;;;13.69;100.00;97280.09;5020356;28;20045;-79
2021/08/27 07:24:46;;;;;;;13.45;7.13;;;;;;;13.77;100.00;97277.56;5016439;28;20422;-81
2021/08/27 07:27:13;;;;;;;10.43;6.35;;;;;;;13.69;100.00;97271.94;5017483;28;20124;-81
2021/08/27 07:29:40;;;;;;;11.85;6.43;;;;;;;13.69;100.00;97269.22;5017927;28;20066;-80
2021/08/27 07:32:11;;;;;;;11.20;6.40;;;;;;;13.55;100.00;97273.44;4999823;28;20050;-81
2021/08/27 07:34:40;;;;;;;12.77;6.18;;;;;;;13.63;100.00;97276.00;5023059;28;20054;-80
2021/08/27 07:37:10;;;;;;;13.50;6.03;;;;;;;13.63;100.00;97272.50;5014682;28;20046;-80
2021/08/27 07:39:37;;;;;;;10.15;6.25;;;;;;;13.77;100.00;97288.44;5008796;28;20050;-80
2021/08/27 07:42:05;;;;;;;9.68;5.18;;;;;;;13.65;100.00;97281.13;5013113;28;20505;-79
2021/08/27 07:44:32;;;;;;;13.30;5.10;;;;;;;13.80;100.00;97293.22;5019796;28;20038;-80
2021/08/27 07:46:59;;;;;;;11.50;5.22;;;;;;;13.69;100.00;97287.44;5015080;28;20053;-79
2021/08/27 07:49:26;;;;;;;13.15;5.60;;;;;;;13.71;100.00;97285.97;5013561;28;20042;-80
2021/08/27 07:51:53;;;;;;;8.57;4.45;;;;;;;13.55;100.00;97271.50;5014251;28;20055;-79
2021/08/27 07:54:20;;;;;;;15.50;5.22;;;;;;;13.75;100.00;97286.84;5015103;28;20042;-80
2021/08/27 07:56:47;;;;;;;10.73;5.10;;;;;;;13.62;100.00;97279.88;5014213;28;20440;-80
2021/08/27 07:59:14;;;;;;;9.40;4.40;;;;;;;13.70;100.00;97284.38;5016516;28;20056;-80
2021/08/27 08:01:40;;;;;;;11.80;4.75;;;;;;;13.65;100.00;97287.34;5016720;28;20049;-80
2021/08/27 08:04:07;;;;;;;9.95;4.45;;;;;;;13.65;100.00;97281.91;5016566;28;20052;-79
2021/08/27 08:06:38;;;;;;;11.60;4.10;;;;;;;13.74;100.00;97289.94;5014706;28;20270;-80
2021/08/27 08:09:06;;;;;;;9.52;4.78;;;;;;;13.66;100.00;97275.34;5016089;28;20544;-80
2021/08/27 08:11:33;;;;;;;10.65;4.38;;;;;;;13.74;100.00;97277.13;4998926;28;20060;-79
2021/08/27 08:14:00;;;;;;;9.65;4.50;;;;;;;13.89;100.00;97278.31;5016081;28;20280;-79
2021/08/27 08:16:28;;;;;;;9.88;3.70;;;;;;;13.73;100.00;97274.72;5023806;28;20050;-79
2021/08/27 08:18:54;;;;;;;10.98;3.92;;;;;;;13.89;100.00;97269.38;5024636;28;20045;-79
2021/08/27 08:21:24;;;;;;;13.55;3.95;;;;;;;14.04;100.00;97276.81;5022843;28;20050;-80
2021/08/27 08:23:53;;;;;;;7.97;2.78;;;;;;;14.01;100.00;97272.88;4999163;28;20053;-80
2021/08/27 08:26:21;;;;;;;9.18;3.30;;;;;;;14.33;100.00;97276.50;4998710;28;20049;-80
2021/08/27 08:28:50;;;;;;;7.13;3.13;;;;;;;14.40;100.00;97265.78;5000639;28;20049;-80
2021/08/27 08:31:18;;;;;;;9.07;3.00;;;;;;;14.46;100.00;97274.50;5019887;28;20058;-79
2021/08/27 08:33:45;;;;;;;8.80;3.35;;;;;;;14.45;100.00;97278.38;5023211;28;20176;-80
2021/08/27 08:36:12;;;;;;;9.02;3.38;;;;;;;14.24;100.00;97278.56;5016182;28;20461;-80
2021/08/27 08:38:39;;;;;;;6.30;2.53;;;;;;;14.30;100.00;97285.31;5016352;28;20049;-81
2021/08/27 08:41:05;;;;;;;10.40;3.28;;;;;;;14.29;100.00;97278.31;4999023;28;20450;-80
2021/08/27 08:43:32;;;;;;;5.97;2.60;;;;;;;14.39;100.00;97277.03;4998913;28;20050;-79
2021/08/27 08:45:59;;;;;;;6.03;2.58;;;;;;;14.10;100.00;97276.22;5014581;28;20050;-79
2021/08/27 08:48:28;;;;;;;7.88;2.72;;;;;;;14.23;100.00;97276.97;5015044;28;20117;-79
2021/08/27 08:50:59;;;;;;;7.20;3.13;;;;;;;14.16;100.00;97284.94;5016390;28;20061;-80
2021/08/27 08:53:26;;;;;;;6.50;2.60;;;;;;;14.16;100.00;97276.78;4998305;28;20098;-79
2021/08/27 08:55:52;;;;;;;5.38;2.63;;;;;;;14.16;100.00;97283.00;5016264;28;20057;-78
2021/08/27 08:58:19;;;;;;;7.50;3.28;;;;;;;14.31;100.00;97276.84;5016559;28;20117;-80
2021/08/27 09:00:46;;;;;;;5.60;2.97;;;;;;;14.44;100.00;97272.13;4998843;28;20054;-80
2021/08/27 09:03:14;;;;;;;11.30;4.20;;;;;;;14.13;100.00;97272.00;5016191;28;20038;-79
2021/08/27 09:05:41;;;;;;;13.50;4.75;;;;;;;14.00;100.00;97284.88;5017643;28;20462;-80
2021/08/27 09:08:08;;;;;;;9.18;4.10;;;;;;;13.94;100.00;97288.16;5013898;28;20050;-79
2021/08/27 09:10:42;;;;;;;9.48;4.22;;;;;;;14.07;100.00;97300.59;4998856;28;20052;-81
2021/08/27 09:13:10;;;;;;;11.43;3.85;;;;;;;13.92;100.00;97296.69;4998972;28;20492;-78
2021/08/27 09:15:37;;;;;;;8.63;4.22;;;;;;;14.01;100.00;97299.28;4999345;28;20478;-79
2021/08/27 09:18:09;;;;;;;10.82;3.90;;;;;;;13.88;100.00;97286.84;5019296;28;20062;-79
2021/08/27 09:20:36;;;;;;;10.25;4.60;;;;;;;13.84;100.00;97275.06;4998723;28;20049;-79
2021/08/27 09:23:06;;;;;;;8.73;4.30;;;;;;;13.89;100.00;97293.84;5015441;28;20129;-78
2021/08/27 09:25:39;;;;;;;10.70;4.80;;;;;;;14.09;100.00;97306.53;5014281;28;20042;-79
2021/08/27 09:28:17;;;;;;;12.43;5.03;;;;;;;13.92;100.00;97293.19;5014510;28;20054;-78
2021/08/27 09:30:47;;;;;;;10.38;4.53;;;;;;;13.89;100.00;97302.03;5014040;28;20057;-78
2021/08/27 09:33:22;;;;;;;10.70;4.60;;;;;;;14.03;100.00;97305.16;5013734;28;20062;-78
2021/08/27 09:35:59;;;;;;;16.27;4.90;;;;;;;14.09;100.00;97301.09;4996503;28;20060;-79
2021/08/27 09:38:31;;;;;;;8.98;4.97;;;;;;;14.07;100.00;97300.59;5012799;28;20064;-78
2021/08/27 09:41:09;;;;;;;9.38;4.65;;;;;;;13.92;100.00;97302.13;5012103;28;20046;-77
2021/08/27 09:43:46;;;;;;;11.02;5.43;;;;;;;13.90;100.00;97298.16;5013612;28;20312;-78
2021/08/27 09:46:37;;;;;;;7.93;4.95;;;;;;;13.75;100.00;97295.03;5013419;28;20050;-78
2021/08/27 09:49:26;;;;;;;13.75;5.50;;;;;;;13.67;100.00;97306.06;5013116;28;20045;-78
2021/08/27 09:51:54;;;;;;;8.57;4.75;;;;;;;13.57;100.00;97309.25;5014528;28;20048;-78
2021/08/27 09:54:22;;;;;;;10.77;5.25;;;;;;;-141.50;100.00;63355.56;5012593;28;20049;-78
2021/08/27 09:57:49;;;;;;;12.10;5.78;;;;;;;-141.50;100.00;63355.56;5012112;28;20056;-78
2021/08/27 10:01:15;;;;;;;13.23;5.80;;;;;;;-141.50;100.00;63355.56;4996401;28;20053;-79
2021/08/27 10:04:51;;;;;;;13.38;6.10;;;;;;;-141.50;100.00;63355.56;5013689;28;20092;-79
2021/08/27 10:08:25;;;;;;;12.75;5.90;;;;;;;-141.50;100.00;63355.56;5012864;28;20046;-78
2021/08/27 10:11:18;;;;;;;8.73;5.57;;;;;;;13.57;100.00;97309.25;5015494;28;20046;-78
2021/08/27 10:14:44;;;;;;;9.80;5.00;;;;;;;-141.50;100.00;63355.56;5013329;28;20045;-79
2021/08/27 10:18:10;;;;;;;9.88;4.97;;;;;;;-141.50;100.00;63355.56;5014434;28;20053;-78
2021/08/27 10:21:35;;;;;;;9.65;5.10;;;;;;;-141.50;100.00;63355.56;4996261;28;20060;-78
2021/08/27 10:24:06;;;;;;;10.48;5.15;;;;;;;13.57;100.00;97309.25;5012989;28;20072;-78
2021/08/27 10:27:30;;;;;;;9.27;5.78;;;;;;;-141.50;100.00;63355.56;5011802;28;20214;-78
2021/08/27 10:29:57;;;;;;;11.02;6.25;;;;;;;-141.50;100.00;63355.56;5013864;28;20046;-79
2021/08/27 10:32:39;;;;;;;10.07;5.70;;;;;;;-141.50;100.00;63355.56;5014993;28;20046;-78
2021/08/27 10:35:21;;;;;;;15.52;5.78;;;;;;;14.15;100.00;97294.22;5013901;28;20052;-78
2021/08/27 10:37:49;;;;;;;10.15;5.80;;;;;;;14.24;100.00;97295.69;5013141;28;20632;-78
2021/08/27 10:40:22;;;;;;;9.35;5.25;;;;;;;14.33;100.00;97288.19;5013519;28;20073;-80
2021/08/27 10:42:50;;;;;;;8.43;5.03;;;;;;;14.25;100.00;97296.47;5014166;28;20440;-78
2021/08/27 10:45:39;;;;;;;15.15;4.85;;;;;;;14.23;100.00;97294.09;5018597;28;20129;-79
2021/08/27 10:48:24;;;;;;;12.60;5.90;;;;;;;14.31;100.00;97289.66;5019223;28;20418;-80
2021/08/27 10:50:56;;;;;;;11.15;4.97;;;;;;;14.24;100.00;97289.44;5019718;28;20492;-80
2021/08/27 10:53:37;;;;;;;7.63;4.65;;;;;;;14.20;100.00;97283.09;5018155;28;20056;-79
2021/08/27 10:56:45;;;;;;;7.07;4.90;;;;;;;14.38;100.00;97291.78;5018998;28;20473;-79
2021/08/27 10:59:14;;;;;;;8.52;4.63;;;;;;;14.28;100.00;97282.16;5032979;28;20050;-79
2021/08/27 11:01:45;;;;;;;11.40;4.95;;;;;;;14.21;100.00;97285.50;5006672;28;20064;-80
2021/08/27 11:04:19;;;;;;;12.95;4.75;;;;;;;14.24;100.00;97290.25;5019978;28;20053;-79
2021/08/27 11:06:50;;;;;;;13.48;4.45;;;;;;;14.12;100.00;97289.47;5017619;28;20068;-79
2021/08/27 11:09:27;;;;;;;9.52;4.75;;;;;;;14.02;100.00;97303.56;5017131;28;20502;-79
2021/08/27 11:12:15;;;;;;;11.52;5.30;;;;;;;14.06;100.00;97290.88;5015347;28;20056;-79
2021/08/27 11:14:54;;;;;;;8.57;4.80;;;;;;;14.13;100.00;97302.75;5016953;28;20113;-79
2021/08/27 11:17:21;;;;;;;11.60;4.95;;;;;;;14.40;100.00;97298.47;5017194;28;20042;-80
2021/08/27 11:19:59;;;;;;;10.93;5.45;;;;;;;14.14;100.00;97303.56;5016538;28;20080;-79
2021/08/27 11:22:30;;;;;;;11.43;4.70;;;;;;;13.87;100.00;97286.06;4999906;28;20050;-79
2021/08/27 11:25:04;;;;;;;9.60;5.25;;;;;;;13.96;100.00;97300.28;5017032;23;20703;-79
2021/08/27 11:27:32;;;;;;;10.02;5.18;;;;;;;13.92;100.00;97288.53;4979458;28;20061;-78
2021/08/27 11:30:07;;;;;;;8.85;4.50;;;;;;;13.88;100.00;97295.81;4994112;28;20517;-81
2021/08/27 11:32:34;;;;;;;;;;;;;;;14.32;100.00;97302.94;4985501;28;20054;-79
2021/08/27 11:35:06;;;;;;;8.65;4.40;;;;;;;14.03;100.00;97294.28;4995363;28;19922;-77
2021/08/27 11:37:34;;;;;;;8.63;4.78;;;;;;;14.17;100.00;97300.91;4999605;28;20050;-82
2021/08/27 11:40:02;;;;;;;10.30;5.28;;;;;;;14.13;100.00;97310.13;5002817;28;20050;-81
2021/08/27 11:42:30;;;;;;;12.85;5.25;;;;;;;13.73;100.00;97291.84;4999304;28;20057;-80